createdAt,value
2023-03-21T00:02:18.295Z,99385.88
2023-03-21T00:04:52.601Z,99380.72
2023-03-21T00:07:23.974Z,99383.39
2023-03-21T00:10:04.789Z,99372.14
2023-03-21T00:12:31.335Z,99368.67
2023-03-21T00:15:04.885Z,99371.22
2023-03-21T00:17:38.934Z,99369.48
2023-03-21T00:20:16.583Z,99349.84
2023-03-21T00:22:49.014Z,99349.84
2023-03-21T00:25:39.100Z,99359.00
2023-03-21T00:28:11.513Z,99359.82
2023-03-21T00:30:43.308Z,99353.05
2023-03-21T00:36:01.831Z,99349.67
2023-03-21T00:38:27.017Z,99341.05
2023-03-21T00:41:04.672Z,99341.91
2023-03-21T00:43:33.015Z,99346.27
2023-03-21T00:46:05.906Z,99338.39
2023-03-21T00:48:38.010Z,99334.04
2023-03-21T00:51:22.519Z,99333.98
2023-03-21T00:53:58.584Z,99335.66
2023-03-21T00:56:32.685Z,99333.00
2023-03-21T00:59:04.944Z,99331.28
2023-03-21T01:01:37.398Z,99330.45
2023-03-21T01:04:12.930Z,99333.06
2023-03-21T01:06:45.930Z,99331.28
2023-03-21T01:09:20.831Z,99329.59
2023-03-21T01:11:52.986Z,99323.62
2023-03-21T01:14:25.048Z,99330.63
2023-03-21T01:16:58.075Z,99317.67
2023-03-21T01:19:48.319Z,99327.20
2023-03-21T01:22:04.664Z,99317.61
2023-03-21T01:24:40.529Z,99316.84
2023-03-21T01:27:10.603Z,99307.31
2023-03-21T01:29:42.732Z,99303.02
2023-03-21T01:32:14.756Z,99302.19
2023-03-21T01:34:46.744Z,99302.25
2023-03-21T01:37:20.084Z,99301.39
2023-03-21T01:39:53.796Z,99302.34
2023-03-21T01:42:26.465Z,99304.02
2023-03-21T01:45:01.445Z,99299.67
2023-03-21T01:47:40.661Z,99298.81
2023-03-21T01:50:23.384Z,99301.42
2023-03-21T01:52:59.945Z,99298.05
2023-03-21T01:55:33.859Z,99298.05
2023-03-21T01:58:14.206Z,99296.27
2023-03-21T02:00:51.178Z,99297.19
2023-03-21T02:03:42.516Z,99295.45
2023-03-21T02:06:29.496Z,99285.85
2023-03-21T02:09:05.842Z,99295.45
2023-03-21T02:11:38.986Z,99283.34
2023-03-21T02:14:17.761Z,99284.23
2023-03-21T02:17:13.250Z,99284.23
2023-03-21T02:20:11.852Z,99282.55
2023-03-21T02:22:53.218Z,99286.83
2023-03-21T02:25:33.577Z,99276.41
2023-03-21T02:28:14.603Z,99276.41
2023-03-21T02:31:01.951Z,99279.81
2023-03-21T02:33:57.661Z,99276.30
2023-03-21T02:36:54.885Z,99272.83
2023-03-21T02:39:38.701Z,99263.19
2023-03-21T02:42:28.387Z,99261.98
2023-03-21T02:45:12.416Z,99265.62
2023-03-21T02:47:52.789Z,99262.33
2023-03-21T02:50:48.520Z,99265.81
2023-03-21T02:56:13.030Z,99273.62
2023-03-21T02:58:47.890Z,99268.54
2023-03-21T03:01:27.197Z,99259.91
2023-03-21T03:03:59.979Z,99255.58
2023-03-21T03:06:40.341Z,99261.77
2023-03-21T03:09:27.490Z,99255.73
2023-03-21T03:12:08.131Z,99249.66
2023-03-21T03:15:00.243Z,99250.52
2023-03-21T03:17:27.959Z,99247.06
2023-03-21T03:20:16.470Z,99241.05
2023-03-21T03:23:06.650Z,99236.00
2023-03-21T03:25:50.512Z,99231.77
2023-03-21T03:28:25.796Z,99232.53
2023-03-21T03:31:09.096Z,99229.93
2023-03-21T03:33:37.350Z,99229.99
2023-03-21T03:36:28.438Z,99233.45
2023-03-21T03:38:49.112Z,99229.99
2023-03-21T03:41:25.679Z,99229.17
2023-03-21T03:44:02.574Z,99231.77
2023-03-21T03:46:39.223Z,99236.77
2023-03-21T03:49:20.513Z,99231.55
2023-03-21T03:52:01.332Z,99232.41
2023-03-21T03:54:40.882Z,99224.60
2023-03-21T03:57:14.528Z,99227.97
2023-03-21T03:59:47.969Z,99235.66
2023-03-21T04:02:39.923Z,99214.19
2023-03-21T04:05:13.099Z,99225.06
2023-03-21T04:07:45.249Z,99223.28
2023-03-21T04:10:17.544Z,99222.36
2023-03-21T04:12:50.368Z,99212.83
2023-03-21T04:15:24.082Z,99213.53
2023-03-21T04:17:57.955Z,99209.88
2023-03-21T04:20:37.044Z,99213.00
2023-03-21T04:23:04.437Z,99208.65
2023-03-21T04:25:44.692Z,99211.95
2023-03-21T04:28:12.670Z,99198.80
2023-03-21T04:31:00.434Z,99205.56
2023-03-21T04:33:22.009Z,99205.56
2023-03-21T04:35:59.498Z,99207.81
2023-03-21T04:38:34.046Z,99208.48
2023-03-21T04:41:07.689Z,99205.65
2023-03-21T04:43:40.217Z,99213.05
2023-03-21T04:46:12.620Z,99214.47
2023-03-21T04:48:44.628Z,99214.20
2023-03-21T04:51:17.519Z,99214.59
2023-03-21T04:53:51.414Z,99199.51
2023-03-21T04:56:24.952Z,99207.00
2023-03-21T04:58:57.661Z,99211.91
2023-03-21T05:01:33.382Z,99210.64
2023-03-21T05:04:06.313Z,99206.90
2023-03-21T05:06:39.145Z,99210.06
2023-03-21T05:09:11.925Z,99206.45
2023-03-21T05:11:44.381Z,99202.16
2023-03-21T05:14:20.903Z,99210.06
2023-03-21T05:16:57.582Z,99210.20
2023-03-21T05:19:38.903Z,99203.44
2023-03-21T05:22:14.346Z,99205.28
2023-03-21T05:24:51.195Z,99207.11
2023-03-21T05:27:36.657Z,99207.17
2023-03-21T05:30:19.026Z,99208.17
2023-03-21T05:32:53.194Z,99205.70
2023-03-21T05:35:26.879Z,99207.48
2023-03-21T05:38:00.551Z,99206.55
2023-03-21T05:40:34.682Z,99198.42
2023-03-21T05:43:07.539Z,99210.13
2023-03-21T05:45:52.769Z,99202.77
2023-03-21T05:48:25.759Z,99203.11
2023-03-21T05:51:06.310Z,99199.97
2023-03-21T05:53:38.681Z,99202.05
2023-03-21T05:56:11.515Z,99198.11
2023-03-21T05:58:45.534Z,99203.73
2023-03-21T06:01:17.602Z,99200.64
2023-03-21T06:04:04.221Z,99205.58
2023-03-21T06:06:36.837Z,99203.64
2023-03-21T06:09:09.575Z,99203.72
2023-03-21T06:11:46.081Z,99201.95
2023-03-21T06:14:31.728Z,99199.95
2023-03-21T06:17:17.301Z,99196.33
2023-03-21T06:19:54.009Z,99203.80
2023-03-21T06:22:31.772Z,99198.23
2023-03-21T06:25:07.666Z,99198.01
2023-03-21T06:27:40.365Z,99199.69
2023-03-21T06:30:13.119Z,99192.86
2023-03-21T06:32:46.941Z,99189.91
2023-03-21T06:35:21.545Z,99188.59
2023-03-21T06:37:53.705Z,99183.49
2023-03-21T06:40:26.437Z,99177.76
2023-03-21T06:42:59.796Z,99173.81
2023-03-21T06:45:31.806Z,99176.86
2023-03-21T06:48:04.632Z,99173.73
2023-03-21T06:50:38.497Z,99167.41
2023-03-21T06:53:11.246Z,99163.85
2023-03-21T06:55:46.816Z,99166.06
2023-03-21T06:58:19.464Z,99165.19
2023-03-21T07:00:52.182Z,99165.27
2023-03-21T07:03:24.727Z,99155.61
2023-03-21T07:05:56.972Z,99147.04
2023-03-21T07:08:30.703Z,99145.86
2023-03-21T07:11:02.945Z,99151.70
2023-03-21T07:13:35.316Z,99152.47
2023-03-21T07:16:10.392Z,99146.86
2023-03-21T07:18:42.722Z,99144.64
2023-03-21T07:21:16.343Z,99144.73
2023-03-21T07:23:50.476Z,99151.22
2023-03-21T07:26:23.154Z,99149.95
2023-03-21T07:28:55.894Z,99146.98
2023-03-21T07:31:30.439Z,99146.53
2023-03-21T07:34:02.967Z,99142.70
2023-03-21T07:36:37.174Z,99152.92
2023-03-21T07:39:11.197Z,99140.66
2023-03-21T07:41:43.882Z,99140.78
2023-03-21T07:44:17.585Z,99140.39
2023-03-21T07:46:49.662Z,99149.35
2023-03-21T07:49:23.190Z,99136.72
2023-03-21T07:51:56.182Z,99143.96
2023-03-21T07:54:29.043Z,99139.06
2023-03-21T07:57:01.395Z,99139.46
2023-03-21T07:59:34.124Z,99136.72
2023-03-21T08:02:07.393Z,99130.53
2023-03-21T08:04:40.310Z,99133.34
2023-03-21T08:07:12.795Z,99127.39
2023-03-21T08:09:45.653Z,99126.14
2023-03-21T08:12:18.498Z,99129.07
2023-03-21T08:14:50.982Z,99125.19
2023-03-21T08:17:23.149Z,99117.58
2023-03-21T08:19:55.555Z,99118.25
2023-03-21T08:22:27.833Z,99128.58
2023-03-21T08:25:00.154Z,99122.27
2023-03-21T08:27:33.285Z,99115.76
2023-03-21T08:30:06.075Z,99118.59
2023-03-21T08:32:38.817Z,99112.14
2023-03-21T08:35:13.018Z,99113.48
2023-03-21T08:37:45.492Z,99116.44
2023-03-21T08:40:20.725Z,99116.02
2023-03-21T08:42:53.077Z,99117.63
2023-03-21T08:45:25.674Z,99118.16
2023-03-21T08:47:58.446Z,99118.26
2023-03-21T08:50:31.951Z,99115.00
2023-03-21T08:53:04.121Z,99100.91
2023-03-21T08:55:36.457Z,99109.88
2023-03-21T08:58:08.842Z,99109.65
2023-03-21T09:00:41.608Z,99111.95
2023-03-21T09:03:14.310Z,99106.69
2023-03-21T09:05:46.661Z,99105.55
2023-03-21T09:08:20.420Z,99109.78
2023-03-21T09:10:54.982Z,99111.72
2023-03-21T09:13:27.233Z,99110.64
2023-03-21T09:16:01.056Z,99110.98
2023-03-21T09:18:40.900Z,99109.52
2023-03-21T09:21:14.912Z,99097.50
2023-03-21T09:23:47.274Z,99099.03
2023-03-21T09:26:20.505Z,99097.99
2023-03-21T09:28:53.868Z,99096.50
2023-03-21T09:31:26.215Z,99109.50
2023-03-21T09:33:58.758Z,99091.86
2023-03-21T09:36:32.119Z,99098.48
2023-03-21T09:39:05.927Z,99092.94
2023-03-21T09:41:50.405Z,99098.70
2023-03-21T09:44:44.777Z,99085.21
2023-03-21T09:47:24.761Z,99074.82
2023-03-21T09:50:14.188Z,99080.37
2023-03-21T09:53:00.432Z,99080.89
2023-03-21T09:55:35.893Z,99077.08
2023-03-21T09:58:44.737Z,99063.77
2023-03-21T10:01:36.109Z,99065.77
2023-03-21T10:04:10.850Z,99059.44
2023-03-21T10:06:43.172Z,99061.16
2023-03-21T10:09:24.747Z,99063.98
2023-03-21T10:12:07.646Z,99044.43
2023-03-21T10:14:45.480Z,99048.40
2023-03-21T10:17:35.232Z,99047.91
2023-03-21T10:20:19.682Z,99046.48
2023-03-21T10:22:55.251Z,99042.42
2023-03-21T10:25:36.547Z,99039.89
2023-03-21T10:28:11.163Z,99037.48
2023-03-21T10:30:43.940Z,99029.08
2023-03-21T10:33:18.605Z,99044.44
2023-03-21T10:35:57.359Z,99029.26
2023-03-21T10:38:30.790Z,99026.95
2023-03-21T10:41:02.902Z,99025.17
2023-03-21T10:43:40.964Z,99025.06
2023-03-21T10:46:21.842Z,99015.52
2023-03-21T10:48:55.789Z,99012.14
2023-03-21T10:51:30.976Z,99015.03
2023-03-21T10:54:08.749Z,99024.49
2023-03-21T10:56:43.940Z,99022.77
2023-03-21T10:59:23.715Z,99018.52
2023-03-21T11:01:58.133Z,99010.52
2023-03-21T11:04:31.060Z,99028.30
2023-03-21T11:07:11.077Z,99026.81
2023-03-21T11:09:57.990Z,99016.63
2023-03-21T11:12:39.443Z,99016.50
2023-03-21T11:15:31.142Z,99019.98
2023-03-21T11:18:06.249Z,99018.92
2023-03-21T11:20:41.586Z,99013.39
2023-03-21T11:23:14.808Z,99013.97
2023-03-21T11:25:49.859Z,99002.98
2023-03-21T11:28:24.462Z,99007.75
2023-03-21T11:30:59.959Z,99007.81
2023-03-21T11:33:38.659Z,98996.35
2023-03-21T11:36:23.093Z,99000.39
2023-03-21T11:39:01.234Z,99004.25
2023-03-21T11:41:35.758Z,98998.92
2023-03-21T11:44:10.148Z,98998.88
2023-03-21T11:46:42.487Z,98991.14
2023-03-21T11:49:14.626Z,98985.66
2023-03-21T11:51:58.600Z,98986.42
2023-03-21T11:54:36.267Z,98989.55
2023-03-21T11:57:12.079Z,98985.67
2023-03-21T11:59:59.122Z,98973.66
2023-03-21T12:02:52.682Z,98969.19
2023-03-21T12:05:36.979Z,98966.98
2023-03-21T12:08:29.940Z,98961.34
2023-03-21T12:11:08.010Z,98966.81
2023-03-21T12:13:54.712Z,98961.23
2023-03-21T12:16:30.625Z,98962.69
2023-03-21T12:19:29.654Z,98956.25
2023-03-21T12:22:23.585Z,98949.97
2023-03-21T12:25:01.268Z,98952.89
2023-03-21T12:27:37.776Z,98953.05
2023-03-21T12:30:33.368Z,98949.34
2023-03-21T12:33:26.157Z,98949.70
2023-03-21T12:36:18.227Z,98944.28
2023-03-21T12:39:02.451Z,98935.64
2023-03-21T12:41:43.393Z,98940.20
2023-03-21T12:44:20.456Z,98933.75
2023-03-21T12:46:58.235Z,98920.06
2023-03-21T12:49:36.173Z,98917.29
2023-03-21T12:52:11.208Z,98914.57
2023-03-21T12:54:46.385Z,98911.63
2023-03-21T12:57:24.616Z,98900.58
2023-03-21T12:59:59.744Z,98903.66
2023-03-21T13:02:36.422Z,98895.64
2023-03-21T13:05:33.424Z,98895.89
2023-03-21T13:08:08.347Z,98892.75
2023-03-21T13:10:43.062Z,98900.43
2023-03-21T13:13:20.510Z,98897.16
2023-03-21T13:16:01.283Z,98881.73
2023-03-21T13:19:03.402Z,98890.91
2023-03-21T13:21:53.153Z,98894.16
2023-03-21T13:24:36.651Z,98888.36
2023-03-21T13:27:17.351Z,98890.00
2023-03-21T13:29:55.458Z,98890.33
2023-03-21T13:32:33.249Z,98887.92
2023-03-21T13:35:28.841Z,98876.31
2023-03-21T13:38:10.878Z,98879.98
2023-03-21T13:40:52.040Z,98885.08
2023-03-21T13:43:48.140Z,98867.95
2023-03-21T13:46:43.264Z,98885.39
2023-03-21T13:49:14.980Z,98875.91
2023-03-21T13:51:55.352Z,98878.14
2023-03-21T13:54:51.542Z,98876.53
2023-03-21T13:57:26.546Z,98877.93
2023-03-21T14:00:25.744Z,98875.56
2023-03-21T14:03:03.832Z,98876.58
2023-03-21T14:05:37.883Z,98868.13
2023-03-21T14:08:19.307Z,98876.88
2023-03-21T14:10:50.333Z,98863.91
2023-03-21T14:13:25.413Z,98858.16
2023-03-21T14:16:05.651Z,98857.87
2023-03-21T14:18:54.173Z,98866.75
2023-03-21T14:21:25.464Z,98881.02
2023-03-21T14:24:09.003Z,98876.98
2023-03-21T14:26:47.050Z,98861.02
2023-03-21T14:29:33.883Z,98861.02
2023-03-21T14:32:06.510Z,98882.59
2023-03-21T14:34:40.957Z,98882.59
2023-03-21T14:37:13.786Z,98885.28
2023-03-21T14:39:45.965Z,98889.22
2023-03-21T14:42:19.832Z,98884.62
2023-03-21T14:44:55.910Z,98886.33
2023-03-21T14:47:29.076Z,98885.97
2023-03-21T14:50:02.074Z,98889.49
2023-03-21T14:52:35.717Z,98882.05
2023-03-21T14:55:10.835Z,98886.91
2023-03-21T14:57:43.981Z,98882.19
2023-03-21T15:00:23.157Z,98882.61
2023-03-21T15:02:57.645Z,98872.16
2023-03-21T15:05:37.656Z,98876.52
2023-03-21T15:08:16.164Z,98880.03
2023-03-21T15:11:08.115Z,98879.04
2023-03-21T15:13:36.456Z,98878.00
2023-03-21T15:16:10.651Z,98887.27
2023-03-21T15:18:44.315Z,98884.34
2023-03-21T15:21:27.453Z,98882.98
2023-03-21T15:24:02.394Z,98890.47
2023-03-21T15:26:35.125Z,98891.73
2023-03-21T15:29:08.562Z,98889.00
2023-03-21T15:31:42.150Z,98890.38
2023-03-21T15:34:27.688Z,98901.22
2023-03-21T15:37:05.698Z,98898.80
2023-03-21T15:39:37.807Z,98900.81
2023-03-21T15:42:27.927Z,98899.34
2023-03-21T15:45:03.247Z,98895.35
2023-03-21T15:47:53.420Z,98899.95
2023-03-21T15:50:29.704Z,98903.64
2023-03-21T15:53:04.482Z,98906.50
2023-03-21T15:55:39.719Z,98914.14
2023-03-21T15:58:18.553Z,98908.99
2023-03-21T16:00:59.839Z,98907.42
2023-03-21T16:03:34.527Z,98911.85
2023-03-21T16:06:15.589Z,98911.85
2023-03-21T16:08:53.244Z,98914.48
2023-03-21T16:11:28.527Z,98917.20
2023-03-21T16:14:01.194Z,98919.93
2023-03-21T16:16:33.892Z,98918.26
2023-03-21T16:19:07.624Z,98920.13
2023-03-21T16:21:40.325Z,98924.66
2023-03-21T16:24:13.614Z,98923.09
2023-03-21T16:26:51.647Z,98919.81
2023-03-21T16:29:23.809Z,98918.14
2023-03-21T16:31:56.429Z,98916.56
2023-03-21T16:34:29.460Z,98925.49
2023-03-21T16:37:01.430Z,98919.39
2023-03-21T16:39:33.531Z,98922.02
2023-03-21T16:42:05.941Z,98935.04
2023-03-21T16:44:39.605Z,98929.07
2023-03-21T16:47:17.826Z,98930.84
2023-03-21T16:49:49.965Z,98934.42
2023-03-21T16:52:23.961Z,98934.72
2023-03-21T16:54:55.907Z,98934.72
2023-03-21T16:57:28.502Z,98932.28
2023-03-21T17:00:01.228Z,98933.14
2023-03-21T17:02:33.839Z,98940.48
2023-03-21T17:05:07.779Z,98937.20
2023-03-21T17:07:40.035Z,98944.65
2023-03-21T17:10:27.147Z,98939.82
2023-03-21T17:12:59.147Z,98943.49
2023-03-21T17:15:31.230Z,98956.61
2023-03-21T17:18:03.429Z,98954.18
2023-03-21T17:20:38.472Z,98958.04
2023-03-21T17:23:11.055Z,98966.01
2023-03-21T17:25:43.022Z,98966.67
2023-03-21T17:28:15.169Z,98971.59
2023-03-21T17:30:47.193Z,98978.99
2023-03-21T17:33:19.568Z,98983.23
2023-03-21T17:35:51.858Z,98979.63
2023-03-21T17:38:23.944Z,98987.78
2023-03-21T17:40:56.002Z,99000.36
2023-03-21T17:43:28.029Z,98998.39
2023-03-21T17:46:00.105Z,98999.62
2023-03-21T17:48:32.335Z,98991.25
2023-03-21T17:51:04.408Z,98997.52
2023-03-21T17:53:36.345Z,98996.99
2023-03-21T17:56:10.359Z,99000.23
2023-03-21T17:58:42.404Z,98992.20
2023-03-21T18:01:14.949Z,98998.09
2023-03-21T18:03:47.234Z,98987.53
2023-03-21T18:06:24.244Z,98996.28
2023-03-21T18:08:56.344Z,99002.50
2023-03-21T18:11:29.125Z,98995.98
2023-03-21T18:14:15.446Z,98990.88
2023-03-21T18:16:35.094Z,99007.52
2023-03-21T18:19:07.487Z,99003.55
2023-03-21T18:21:40.815Z,99008.20
2023-03-21T18:24:12.678Z,99011.84
2023-03-21T18:26:46.195Z,99016.46
2023-03-21T18:30:17.495Z,99019.81
2023-03-21T18:32:05.530Z,99013.60
2023-03-21T18:34:27.962Z,99023.03
2023-03-21T18:37:02.776Z,99028.61
2023-03-21T18:39:34.778Z,99031.14
2023-03-21T18:42:07.529Z,99035.36
2023-03-21T18:44:42.264Z,99036.96
2023-03-21T18:47:15.096Z,99031.65
2023-03-21T18:50:12.415Z,99042.85
2023-03-21T18:52:21.492Z,99041.83
2023-03-21T18:54:54.522Z,99043.14
2023-03-21T18:57:36.422Z,99046.23
2023-03-21T19:00:01.537Z,99046.40
2023-03-21T19:02:33.705Z,99050.53
2023-03-21T19:05:06.225Z,99047.41
2023-03-21T19:07:38.535Z,99044.11
2023-03-21T19:10:20.002Z,99052.38
2023-03-21T19:12:44.699Z,99043.13
2023-03-21T19:15:19.265Z,99049.17
2023-03-21T19:18:30.672Z,99049.17
2023-03-21T19:20:25.048Z,99047.27
2023-03-21T19:22:57.255Z,99052.12
2023-03-21T19:25:29.234Z,99044.37
2023-03-21T19:28:01.334Z,99053.47
2023-03-21T19:30:34.148Z,99053.73
2023-03-21T19:33:06.573Z,99055.41
2023-03-21T19:35:40.956Z,99049.53
2023-03-21T19:38:12.937Z,99060.88
2023-03-21T19:40:45.221Z,99058.83
2023-03-21T19:43:33.716Z,99058.97
2023-03-21T19:45:51.752Z,99051.20
2023-03-21T19:48:23.970Z,99056.36
2023-03-21T19:53:30.998Z,99061.50
2023-03-21T19:56:04.887Z,99059.05
2023-03-21T19:58:36.831Z,99056.59
2023-03-21T20:01:11.519Z,99064.94
2023-03-21T20:03:44.920Z,99066.97
2023-03-21T20:06:17.427Z,99070.75
2023-03-21T20:09:27.651Z,99064.86
2023-03-21T20:11:23.116Z,99069.23
2023-03-21T20:13:55.328Z,99063.92
2023-03-21T20:16:34.110Z,99071.69
2023-03-21T20:19:01.726Z,99082.22
2023-03-21T20:21:45.221Z,99072.28
2023-03-21T20:24:07.782Z,99078.94
2023-03-21T20:26:39.772Z,99080.63
2023-03-21T20:30:05.491Z,99072.19
2023-03-21T20:31:45.637Z,99080.78
2023-03-21T20:34:18.241Z,99084.41
2023-03-21T20:36:50.488Z,99088.96
2023-03-21T20:39:22.596Z,99085.76
2023-03-21T20:41:54.961Z,99080.69
2023-03-21T20:44:57.419Z,99079.00
2023-03-21T20:47:00.832Z,99081.62
2023-03-21T20:49:33.634Z,99082.52
2023-03-21T20:54:40.596Z,99087.82
2023-03-21T20:57:12.518Z,99078.48
2023-03-21T20:59:45.809Z,99081.48
2023-03-21T21:02:18.044Z,99082.49
2023-03-21T21:05:21.574Z,99090.33
2023-03-21T21:07:26.419Z,99094.70
2023-03-21T21:09:57.885Z,99086.70
2023-03-21T21:12:29.456Z,99096.28
2023-03-21T21:15:01.967Z,99086.70
2023-03-21T21:18:02.012Z,99087.88
2023-03-21T21:20:17.639Z,99081.97
2023-03-21T21:23:00.429Z,99098.45
2023-03-21T21:25:24.470Z,99096.11
2023-03-21T21:27:56.629Z,99091.90
2023-03-21T21:30:29.569Z,99097.05
2023-03-21T21:33:01.529Z,99094.25
2023-03-21T21:35:33.873Z,99093.43
2023-03-21T21:38:05.765Z,99092.57
2023-03-21T21:40:38.031Z,99090.22
2023-03-21T21:43:11.791Z,99092.75
2023-03-21T21:45:43.729Z,99090.89
2023-03-21T21:48:16.224Z,99094.44
2023-03-21T21:50:51.597Z,99105.18
2023-03-21T21:53:24.082Z,99109.50
2023-03-21T21:56:01.024Z,99104.28
2023-03-21T21:58:37.268Z,99110.03
2023-03-21T22:01:09.442Z,99113.09
2023-03-21T22:03:41.632Z,99108.13
2023-03-21T22:06:14.221Z,99107.41
2023-03-21T22:08:47.204Z,99121.17
2023-03-21T22:11:19.584Z,99112.73
2023-03-21T22:13:51.773Z,99118.78
2023-03-21T22:16:23.892Z,99118.86
2023-03-21T22:18:56.056Z,99114.56
2023-03-21T22:21:28.282Z,99119.72
2023-03-21T22:24:00.249Z,99120.47
2023-03-21T22:26:33.704Z,99123.41
2023-03-21T22:29:07.490Z,99127.69
2023-03-21T22:31:41.077Z,99129.48
2023-03-21T22:34:13.133Z,99132.09
2023-03-21T22:36:46.888Z,99139.14
2023-03-21T22:39:20.146Z,99143.68
2023-03-21T22:41:52.153Z,99140.36
2023-03-21T22:44:24.738Z,99145.69
2023-03-21T22:46:56.754Z,99138.75
2023-03-21T22:49:28.818Z,99143.08
2023-03-21T22:52:01.621Z,99148.97
2023-03-21T22:54:33.887Z,99148.30
2023-03-21T22:57:06.580Z,99150.91
2023-03-21T22:59:38.755Z,99152.52
2023-03-21T23:02:11.434Z,99157.88
2023-03-21T23:04:43.883Z,99152.73
2023-03-21T23:07:16.055Z,99151.05
2023-03-21T23:09:48.271Z,99161.48
2023-03-21T23:12:20.376Z,99164.85
2023-03-21T23:14:52.316Z,99161.48
2023-03-21T23:17:24.336Z,99165.85
2023-03-21T23:19:56.741Z,99168.39
2023-03-21T23:22:32.947Z,99160.63
2023-03-21T23:25:05.367Z,99158.09
2023-03-21T23:27:37.993Z,99159.81
2023-03-21T23:30:11.882Z,99167.39
2023-03-21T23:32:44.007Z,99165.03
2023-03-21T23:35:16.358Z,99157.09
2023-03-21T23:37:49.897Z,99165.92
2023-03-21T23:40:22.346Z,99176.54
2023-03-21T23:42:54.244Z,99163.38
2023-03-21T23:45:26.389Z,99163.48
2023-03-21T23:48:04.682Z,99170.53
2023-03-21T23:50:37.336Z,99166.17
2023-03-21T23:53:09.722Z,99169.39
2023-03-21T23:55:42.326Z,99165.45
2023-03-21T23:58:14.893Z,99172.59
